createdAt,value
2018-02-04T00:00:50.193Z,14.30
2018-02-04T00:01:50.202Z,14.30
2018-02-04T00:02:50.182Z,14.74
2018-02-04T00:03:50.159Z,15.13
2018-02-04T00:04:50.169Z,15.44
2018-02-04T00:05:50.137Z,14.90
2018-02-04T00:06:50.187Z,15.56
2018-02-04T00:07:50.137Z,15.10
2018-02-04T00:08:50.151Z,15.05
2018-02-04T00:09:50.102Z,14.81
2018-02-04T00:10:50.710Z,14.98
2018-02-04T00:11:50.091Z,14.94
2018-02-04T00:12:50.087Z,15.10
2018-02-04T00:13:50.088Z,15.21
2018-02-04T00:14:50.112Z,15.14
2018-02-04T00:15:50.082Z,16.17
2018-02-04T00:16:50.056Z,15.79
2018-02-04T00:17:50.052Z,16.29
2018-02-04T00:18:50.028Z,16.13
2018-02-04T00:19:52.712Z,16.29
2018-02-04T00:20:50.015Z,16.90
2018-02-04T00:21:50.004Z,16.86
2018-02-04T00:22:50.018Z,16.55
2018-02-04T00:23:50.718Z,17.29
2018-02-04T00:24:50.719Z,17.48
2018-02-04T00:25:49.984Z,16.65
2018-02-04T00:26:49.977Z,16.62
2018-02-04T00:27:49.954Z,17.10
2018-02-04T00:28:49.964Z,16.95
2018-02-04T00:29:49.929Z,16.80
2018-02-04T00:30:49.917Z,16.41
2018-02-04T00:31:49.919Z,15.84
2018-02-04T00:32:49.908Z,16.37
2018-02-04T00:33:49.890Z,16.64
2018-02-04T00:34:49.907Z,17.01
2018-02-04T00:35:49.879Z,17.11
2018-02-04T00:36:49.880Z,17.60
2018-02-04T00:37:49.883Z,16.91
2018-02-04T00:38:53.049Z,17.68
2018-02-04T00:39:49.851Z,17.96
2018-02-04T00:40:49.857Z,18.27
2018-02-04T00:41:50.724Z,17.99
2018-02-04T00:42:49.877Z,18.08
2018-02-04T00:43:49.878Z,17.96
2018-02-04T00:44:49.851Z,18.34
2018-02-04T00:45:50.746Z,19.59
2018-02-04T00:46:49.961Z,20.78
2018-02-04T00:47:49.875Z,20.10
2018-02-04T00:48:50.721Z,20.12
2018-02-04T00:49:52.733Z,20.08
2018-02-04T00:50:50.100Z,20.41
2018-02-04T00:51:49.760Z,19.68
2018-02-04T00:52:49.734Z,19.75
2018-02-04T00:53:50.702Z,19.38
2018-02-04T00:54:50.255Z,19.34
2018-02-04T00:55:49.725Z,18.85
2018-02-04T00:56:49.690Z,18.96
2018-02-04T00:57:49.698Z,19.55
2018-02-04T00:58:49.687Z,19.27
2018-02-04T00:59:49.665Z,19.07
2018-02-04T01:00:49.666Z,19.24
2018-02-04T01:01:49.657Z,19.60
2018-02-04T01:02:49.659Z,19.40
2018-02-04T01:03:49.631Z,20.71
2018-02-04T01:04:49.642Z,20.97
2018-02-04T01:05:49.625Z,20.92
2018-02-04T01:06:49.619Z,19.72
2018-02-04T01:07:49.598Z,19.71
2018-02-04T01:08:49.586Z,20.08
2018-02-04T01:09:49.605Z,19.59
2018-02-04T01:10:49.583Z,20.75
2018-02-04T01:11:49.584Z,21.31
2018-02-04T01:12:50.226Z,20.67
2018-02-04T01:13:49.570Z,20.62
2018-02-04T01:14:49.539Z,20.15
2018-02-04T01:15:49.542Z,19.96
2018-02-04T01:16:50.230Z,20.26
2018-02-04T01:17:49.516Z,19.41
2018-02-04T01:18:49.495Z,20.34
2018-02-04T01:19:49.531Z,20.42
2018-02-04T01:20:49.499Z,20.17
2018-02-04T01:21:49.484Z,19.88
2018-02-04T01:22:49.484Z,20.36
2018-02-04T01:23:49.462Z,20.78
2018-02-04T01:24:49.480Z,21.29
2018-02-04T01:25:49.439Z,20.29
2018-02-04T01:26:49.452Z,20.32
2018-02-04T01:27:49.432Z,21.26
2018-02-04T01:28:49.425Z,20.68
2018-02-04T01:29:49.406Z,20.61
2018-02-04T01:30:49.421Z,20.40
2018-02-04T01:31:49.389Z,21.04
2018-02-04T01:32:49.378Z,21.54
2018-02-04T01:33:49.373Z,22.05
2018-02-04T01:34:49.363Z,21.92
2018-02-04T01:35:49.349Z,21.35
2018-02-04T01:36:49.358Z,21.40
2018-02-04T01:37:49.342Z,22.02
2018-02-04T01:38:49.326Z,21.32
2018-02-04T01:39:49.313Z,22.24
2018-02-04T01:40:49.320Z,22.22
2018-02-04T01:41:49.339Z,22.01
2018-02-04T01:42:49.317Z,22.45
2018-02-04T01:43:49.311Z,21.62
2018-02-04T01:44:49.299Z,21.29
2018-02-04T01:45:49.270Z,21.80
2018-02-04T01:46:49.257Z,21.45
2018-02-04T01:47:50.238Z,22.00
2018-02-04T01:48:49.236Z,21.72
2018-02-04T01:49:49.245Z,22.12
2018-02-04T01:50:49.222Z,23.01
2018-02-04T01:51:49.222Z,22.13
2018-02-04T01:52:49.230Z,22.19
2018-02-04T01:53:49.198Z,23.86
2018-02-04T01:54:49.188Z,23.65
2018-02-04T01:55:49.183Z,23.48
2018-02-04T01:56:49.168Z,24.14
2018-02-04T01:57:49.162Z,23.72
2018-02-04T01:58:49.160Z,24.94
2018-02-04T01:59:49.144Z,24.81
2018-02-04T02:00:49.135Z,26.19
2018-02-04T02:01:49.144Z,27.54
2018-02-04T02:02:49.746Z,26.57
2018-02-04T02:03:49.111Z,26.30
2018-02-04T02:04:49.097Z,27.85
2018-02-04T02:05:49.093Z,26.89
2018-02-04T02:06:49.083Z,27.48
2018-02-04T02:07:49.092Z,28.71
2018-02-04T02:08:49.062Z,29.51
2018-02-04T02:09:49.057Z,28.20
2018-02-04T02:10:49.759Z,29.45
2018-02-04T02:11:49.046Z,30.58
2018-02-04T02:12:49.055Z,30.22
2018-02-04T02:13:49.026Z,30.14
2018-02-04T02:14:49.007Z,30.61
2018-02-04T02:15:49.008Z,30.61
2018-02-04T02:16:48.993Z,31.50
2018-02-04T02:17:49.752Z,31.41
2018-02-04T02:18:48.976Z,33.60
2018-02-04T02:19:48.971Z,32.65
2018-02-04T02:20:48.958Z,32.28
2018-02-04T02:21:48.951Z,32.22
2018-02-04T02:22:48.944Z,33.04
2018-02-04T02:23:48.935Z,32.69
2018-02-04T02:24:49.753Z,32.80
2018-02-04T02:25:48.933Z,34.58
2018-02-04T02:26:48.917Z,33.35
2018-02-04T02:27:48.904Z,35.34
2018-02-04T02:28:49.763Z,35.38
2018-02-04T02:29:48.882Z,36.01
2018-02-04T02:30:49.758Z,35.57
2018-02-04T02:31:49.773Z,36.56
2018-02-04T02:32:48.878Z,36.90
2018-02-04T02:33:48.851Z,37.21
2018-02-04T02:34:48.828Z,37.30
2018-02-04T02:35:49.781Z,37.52
2018-02-04T02:36:48.817Z,36.88
2018-02-04T02:37:48.796Z,33.12
2018-02-04T02:38:48.808Z,32.02
2018-02-04T02:39:48.796Z,29.78
2018-02-04T02:40:48.789Z,27.80
2018-02-04T02:41:48.770Z,26.56
2018-02-04T02:42:48.775Z,23.38
2018-02-04T02:43:48.758Z,22.86
2018-02-04T02:44:48.745Z,22.73
2018-02-04T02:45:48.736Z,23.35
2018-02-04T02:46:49.264Z,22.07
2018-02-04T02:47:51.257Z,21.24
2018-02-04T02:48:48.708Z,20.89
2018-02-04T02:49:48.698Z,20.35
2018-02-04T02:50:48.696Z,20.49
2018-02-04T02:51:48.694Z,20.98
2018-02-04T02:52:48.677Z,20.08
2018-02-04T02:53:48.663Z,21.52
2018-02-04T02:54:48.649Z,21.52
2018-02-04T02:55:48.638Z,21.64
2018-02-04T02:56:48.627Z,20.36
2018-02-04T02:57:48.635Z,20.15
2018-02-04T02:58:48.606Z,20.76
2018-02-04T02:59:48.620Z,20.23
2018-02-04T03:00:48.610Z,20.18
2018-02-04T03:01:48.583Z,20.69
2018-02-04T03:02:48.572Z,20.41
2018-02-04T03:03:48.585Z,20.96
2018-02-04T03:04:48.569Z,20.86
2018-02-04T03:05:48.551Z,20.21
2018-02-04T03:06:48.543Z,19.44
2018-02-04T03:07:48.541Z,20.08
2018-02-04T03:08:48.530Z,19.43
2018-02-04T03:09:49.277Z,19.48
2018-02-04T03:10:48.503Z,18.99
2018-02-04T03:11:49.269Z,18.61
2018-02-04T03:12:49.280Z,19.61
2018-02-04T03:13:48.476Z,19.82
2018-02-04T03:14:48.465Z,20.24
2018-02-04T03:15:48.482Z,20.53
2018-02-04T03:16:48.446Z,20.66
2018-02-04T03:17:48.458Z,20.20
2018-02-04T03:18:48.451Z,19.47
2018-02-04T03:19:48.412Z,18.23
2018-02-04T03:20:48.435Z,18.14
2018-02-04T03:21:48.400Z,17.97
2018-02-04T03:22:48.393Z,16.98
2018-02-04T03:23:48.384Z,17.20
2018-02-04T03:24:48.369Z,17.94
2018-02-04T03:25:48.351Z,17.06
2018-02-04T03:26:48.352Z,17.32
2018-02-04T03:27:48.351Z,17.02
2018-02-04T03:28:48.340Z,16.74
2018-02-04T03:29:48.324Z,16.80
2018-02-04T03:30:48.325Z,17.34
2018-02-04T03:31:49.283Z,16.55
2018-02-04T03:32:49.299Z,16.48
2018-02-04T03:33:48.299Z,16.46
2018-02-04T03:34:48.283Z,16.68
2018-02-04T03:35:48.264Z,16.40
2018-02-04T03:36:48.271Z,16.14
2018-02-04T03:37:48.239Z,15.98
2018-02-04T03:38:48.233Z,15.71
2018-02-04T03:39:48.242Z,16.17
2018-02-04T03:40:48.233Z,17.28
2018-02-04T03:41:48.203Z,16.84
2018-02-04T03:42:48.225Z,15.36
2018-02-04T03:43:48.204Z,15.16
2018-02-04T03:44:48.179Z,15.32
2018-02-04T03:45:48.170Z,14.80
2018-02-04T03:46:48.160Z,15.39
2018-02-04T03:47:48.157Z,15.65
2018-02-04T03:48:48.146Z,15.28
2018-02-04T03:49:48.128Z,14.80
2018-02-04T03:50:48.144Z,14.88
2018-02-04T03:51:48.119Z,14.89
2018-02-04T03:52:48.102Z,15.22
2018-02-04T03:53:48.107Z,14.90
2018-02-04T03:54:48.077Z,14.74
2018-02-04T03:55:48.782Z,15.68
2018-02-04T03:56:48.792Z,14.85
2018-02-04T03:57:48.055Z,15.64
2018-02-04T03:58:48.045Z,15.05
2018-02-04T03:59:48.036Z,14.26
2018-02-04T04:00:48.021Z,13.95
2018-02-04T04:01:48.013Z,14.36
2018-02-04T04:02:48.004Z,14.15
2018-02-04T04:03:48.037Z,14.47
2018-02-04T04:04:47.977Z,15.58
2018-02-04T04:05:47.994Z,15.35
2018-02-04T04:06:47.971Z,15.40
2018-02-04T04:07:47.956Z,15.63
2018-02-04T04:08:47.947Z,15.50
2018-02-04T04:08:59.945Z,0.58
2018-02-04T04:10:47.913Z,14.65
2018-02-04T04:11:47.915Z,14.00
2018-02-04T04:12:47.917Z,14.10
2018-02-04T04:13:47.893Z,15.52
2018-02-04T04:14:47.882Z,15.28
2018-02-04T04:15:47.873Z,15.36
2018-02-04T04:16:47.874Z,15.44
2018-02-04T04:17:47.867Z,15.40
2018-02-04T04:18:47.853Z,15.71
2018-02-04T04:19:47.839Z,16.28
2018-02-04T04:20:47.822Z,15.07
2018-02-04T04:21:47.809Z,15.54
2018-02-04T04:22:47.816Z,17.01
2018-02-04T04:23:47.792Z,16.34
2018-02-04T04:24:47.783Z,17.44
2018-02-04T04:25:47.770Z,17.39
2018-02-04T04:26:47.756Z,16.75
2018-02-04T04:27:47.753Z,17.07
2018-02-04T04:28:47.753Z,17.18
2018-02-04T04:29:47.740Z,17.02
2018-02-04T04:30:47.741Z,16.74
2018-02-04T04:31:47.712Z,17.28
2018-02-04T04:32:47.706Z,17.94
2018-02-04T04:33:47.687Z,17.22
2018-02-04T04:34:47.680Z,17.26
2018-02-04T04:35:47.676Z,17.22
2018-02-04T04:36:47.654Z,18.39
2018-02-04T04:37:47.639Z,18.44
2018-02-04T04:38:47.633Z,18.42
2018-02-04T04:39:47.662Z,18.41
2018-02-04T04:40:47.632Z,18.58
2018-02-04T04:41:47.637Z,18.63
2018-02-04T04:42:54.302Z,19.20
2018-02-04T04:43:47.595Z,18.57
2018-02-04T04:44:48.339Z,18.56
2018-02-04T04:45:47.581Z,19.04
2018-02-04T04:46:47.559Z,19.63
2018-02-04T04:47:47.547Z,19.37
2018-02-04T04:48:47.538Z,19.36
2018-02-04T04:49:48.306Z,20.03
2018-02-04T04:50:47.530Z,20.25
2018-02-04T04:51:47.521Z,21.09
2018-02-04T04:52:47.520Z,20.50
2018-02-04T04:53:48.300Z,20.49
2018-02-04T04:54:48.319Z,21.41
2018-02-04T04:55:54.303Z,21.61
2018-02-04T04:56:48.306Z,21.28
2018-02-04T04:57:47.471Z,21.14
2018-02-04T04:58:50.316Z,21.34
2018-02-04T04:59:54.306Z,22.10
2018-02-04T05:00:47.401Z,23.21
2018-02-04T05:01:47.406Z,21.49
2018-02-04T05:02:47.392Z,23.67
2018-02-04T05:03:47.382Z,23.46
2018-02-04T05:04:47.373Z,22.32
2018-02-04T05:05:47.370Z,21.28
2018-02-04T05:06:47.346Z,22.58
2018-02-04T05:07:47.338Z,22.77
2018-02-04T05:08:47.719Z,24.13
2018-02-04T05:09:47.314Z,24.56
2018-02-04T05:10:47.817Z,25.13
2018-02-04T05:11:47.296Z,24.70
2018-02-04T05:12:47.292Z,25.30
2018-02-04T05:13:48.237Z,24.42
2018-02-04T05:14:47.469Z,24.41
2018-02-04T05:15:48.278Z,24.82
2018-02-04T05:16:47.252Z,24.94
2018-02-04T05:17:47.238Z,24.62
2018-02-04T05:18:47.216Z,23.99
2018-02-04T05:19:47.301Z,24.70
2018-02-04T05:20:47.233Z,24.35
2018-02-04T05:21:47.212Z,24.01
2018-02-04T05:22:47.196Z,22.91
2018-02-04T05:23:47.181Z,23.23
2018-02-04T05:24:47.176Z,23.52
2018-02-04T05:25:47.193Z,23.56
2018-02-04T05:26:47.160Z,23.42
2018-02-04T05:27:47.165Z,22.49
2018-02-04T05:28:47.130Z,22.12
2018-02-04T05:29:47.110Z,21.75
2018-02-04T05:30:47.826Z,20.30
2018-02-04T05:31:47.117Z,19.33
2018-02-04T05:32:47.745Z,20.49
2018-02-04T05:33:47.065Z,20.79
2018-02-04T05:34:47.091Z,21.29
2018-02-04T05:35:47.306Z,19.39
2018-02-04T05:36:47.040Z,18.57
2018-02-04T05:37:47.028Z,18.40
2018-02-04T05:38:47.020Z,19.85
2018-02-04T05:39:47.048Z,19.46
2018-02-04T05:40:46.994Z,19.40
2018-02-04T05:41:47.116Z,19.86
2018-02-04T05:42:46.980Z,18.61
2018-02-04T05:43:47.102Z,18.44
2018-02-04T05:44:46.977Z,18.42
2018-02-04T05:45:46.963Z,19.23
2018-02-04T05:46:47.179Z,18.72
2018-02-04T05:47:46.940Z,18.84
2018-02-04T05:48:47.082Z,17.67
2018-02-04T05:49:47.273Z,16.81
2018-02-04T05:50:48.074Z,17.61
2018-02-04T05:51:46.895Z,16.96
2018-02-04T05:52:46.935Z,16.98
2018-02-04T05:53:46.863Z,16.13
2018-02-04T05:54:47.875Z,15.72
2018-02-04T05:55:47.820Z,16.52
2018-02-04T05:56:46.860Z,15.97
2018-02-04T05:57:46.837Z,15.88
2018-02-04T05:58:46.840Z,15.54
2018-02-04T05:59:46.803Z,15.33
2018-02-04T06:00:46.789Z,15.10
2018-02-04T06:01:47.490Z,15.15
2018-02-04T06:02:46.777Z,15.17
2018-02-04T06:03:46.753Z,15.04
2018-02-04T06:04:46.956Z,14.19
2018-02-04T06:05:46.740Z,14.35
2018-02-04T06:06:46.731Z,14.90
2018-02-04T06:07:46.716Z,14.93
2018-02-04T06:08:46.703Z,15.10
2018-02-04T06:09:46.685Z,14.66
2018-02-04T06:10:46.679Z,14.50
2018-02-04T06:11:46.700Z,14.47
2018-02-04T06:12:46.677Z,13.95
2018-02-04T06:13:46.643Z,14.97
2018-02-04T06:14:46.731Z,13.68
2018-02-04T06:15:47.070Z,13.44
2018-02-04T06:16:46.618Z,13.39
2018-02-04T06:17:46.940Z,13.45
2018-02-04T06:18:46.590Z,13.58
2018-02-04T06:19:46.613Z,14.04
2018-02-04T06:20:46.582Z,14.05
2018-02-04T06:21:46.563Z,13.37
2018-02-04T06:22:46.551Z,13.80
2018-02-04T06:23:46.543Z,13.04
2018-02-04T06:24:46.535Z,13.77
2018-02-04T06:25:46.522Z,13.88
2018-02-04T06:26:46.518Z,13.81
2018-02-04T06:27:46.543Z,13.38
2018-02-04T06:28:46.488Z,13.68
2018-02-04T06:29:46.490Z,13.76
2018-02-04T06:30:46.469Z,12.88
2018-02-04T06:31:46.457Z,12.52
2018-02-04T06:32:46.448Z,12.55
2018-02-04T06:33:46.442Z,12.04
2018-02-04T06:34:46.428Z,12.67
2018-02-04T06:35:46.424Z,12.64
2018-02-04T06:36:46.408Z,12.50
2018-02-04T06:37:46.405Z,12.41
2018-02-04T06:38:46.378Z,12.85
2018-02-04T06:39:46.405Z,12.53
2018-02-04T06:40:46.360Z,12.18
2018-02-04T06:41:46.377Z,12.64
2018-02-04T06:42:46.365Z,12.82
2018-02-04T06:43:46.329Z,12.61
2018-02-04T06:44:46.325Z,13.02
2018-02-04T06:45:48.830Z,12.54
2018-02-04T06:46:46.825Z,12.42
2018-02-04T06:47:46.277Z,12.71
2018-02-04T06:48:46.284Z,12.61
2018-02-04T06:49:46.293Z,12.76
2018-02-04T06:50:46.279Z,12.82
2018-02-04T06:51:46.236Z,11.46
2018-02-04T06:52:46.228Z,12.00
2018-02-04T06:53:46.828Z,10.74
2018-02-04T06:54:46.222Z,10.76
2018-02-04T06:55:46.212Z,10.73
2018-02-04T06:56:46.195Z,11.06
2018-02-04T06:57:46.186Z,10.24
2018-02-04T06:58:46.184Z,10.36
2018-02-04T06:59:46.172Z,10.76
2018-02-04T07:00:46.142Z,10.38
2018-02-04T07:00:58.134Z,0.43
2018-02-04T07:02:46.145Z,10.34
2018-02-04T07:03:46.172Z,10.72
2018-02-04T07:04:46.105Z,10.66
2018-02-04T07:05:46.090Z,10.76
2018-02-04T07:06:46.077Z,10.69
2018-02-04T07:07:46.090Z,11.19
2018-02-04T07:08:46.054Z,10.69
2018-02-04T07:09:46.065Z,10.72
2018-02-04T07:10:46.052Z,10.69
2018-02-04T07:11:46.841Z,10.80
2018-02-04T07:12:46.097Z,10.66
2018-02-04T07:13:46.000Z,11.04
2018-02-04T07:14:46.008Z,11.08
2018-02-04T07:15:45.980Z,12.05
2018-02-04T07:16:46.838Z,12.06
2018-02-04T07:17:45.964Z,11.13
2018-02-04T07:18:45.964Z,11.08
2018-02-04T07:19:45.943Z,11.71
2018-02-04T07:20:45.928Z,11.30
2018-02-04T07:21:46.849Z,11.21
2018-02-04T07:22:46.057Z,10.94
2018-02-04T07:23:46.843Z,11.41
2018-02-04T07:24:45.896Z,12.12
2018-02-04T07:25:45.873Z,10.81
2018-02-04T07:26:45.863Z,11.45
2018-02-04T07:27:45.867Z,11.22
2018-02-04T07:28:46.012Z,11.04
2018-02-04T07:29:45.855Z,10.81
2018-02-04T07:30:45.829Z,11.05
2018-02-04T07:31:45.809Z,10.94
2018-02-04T07:32:45.817Z,10.54
2018-02-04T07:33:45.778Z,10.82
2018-02-04T07:34:45.781Z,10.86
2018-02-04T07:35:45.775Z,11.24
2018-02-04T07:36:45.757Z,10.62
2018-02-04T07:37:45.749Z,10.47
2018-02-04T07:38:45.723Z,10.49
2018-02-04T07:39:45.727Z,10.38
2018-02-04T07:40:45.749Z,10.29
2018-02-04T07:41:45.693Z,10.44
2018-02-04T07:42:48.361Z,10.54
2018-02-04T07:43:45.692Z,10.23
2018-02-04T07:44:45.682Z,9.99
2018-02-04T07:46:00.349Z,10.34
2018-02-04T07:46:50.846Z,10.74
2018-02-04T07:47:50.838Z,10.58
2018-02-04T07:48:50.842Z,10.47
2018-02-04T07:49:50.818Z,10.71
2018-02-04T07:50:50.808Z,10.30
2018-02-04T07:51:50.809Z,10.39
2018-02-04T07:52:51.454Z,10.21
2018-02-04T07:53:51.069Z,10.30
2018-02-04T07:54:50.873Z,10.92
2018-02-04T07:55:50.753Z,11.13
2018-02-04T07:56:50.748Z,11.51
2018-02-04T07:57:50.727Z,11.12
2018-02-04T07:58:50.713Z,11.52
2018-02-04T07:59:50.718Z,11.48
2018-02-04T08:00:51.359Z,11.49
2018-02-04T08:01:51.359Z,11.50
2018-02-04T08:02:50.676Z,11.62
2018-02-04T08:03:50.680Z,11.76
2018-02-04T08:04:50.659Z,11.48
2018-02-04T08:05:50.755Z,11.30
2018-02-04T08:06:50.635Z,11.93
2018-02-04T08:07:50.646Z,12.79
2018-02-04T08:08:50.685Z,11.33
2018-02-04T08:09:50.604Z,12.03
2018-02-04T08:10:50.622Z,12.46
2018-02-04T08:11:50.581Z,12.20
2018-02-04T08:12:50.564Z,11.62
2018-02-04T08:13:51.363Z,12.02
2018-02-04T08:14:50.558Z,12.13
2018-02-04T08:15:50.543Z,11.64
2018-02-04T08:16:50.526Z,11.80
2018-02-04T08:17:50.511Z,11.88
2018-02-04T08:18:50.502Z,11.82
2018-02-04T08:19:50.506Z,11.41
2018-02-04T08:20:50.498Z,11.75
2018-02-04T08:21:50.469Z,12.01
2018-02-04T08:22:50.463Z,11.83
2018-02-04T08:23:51.363Z,11.52
2018-02-04T08:24:50.453Z,11.38
2018-02-04T08:25:50.425Z,12.09
2018-02-04T08:26:50.420Z,11.58
2018-02-04T08:27:50.413Z,11.94
2018-02-04T08:28:50.417Z,11.46
2018-02-04T08:29:50.427Z,11.28
2018-02-04T08:30:50.384Z,11.00
2018-02-04T08:31:50.500Z,10.87
2018-02-04T08:32:50.385Z,10.87
2018-02-04T08:33:50.375Z,11.40
2018-02-04T08:34:50.357Z,10.86
2018-02-04T08:35:52.867Z,11.27
2018-02-04T08:36:51.524Z,11.57
2018-02-04T08:37:50.299Z,10.20
2018-02-04T08:38:50.294Z,10.34
2018-02-04T08:39:50.292Z,9.66
2018-02-04T08:40:50.266Z,9.52
2018-02-04T08:41:50.262Z,10.12
2018-02-04T08:42:50.247Z,10.17
2018-02-04T08:43:50.237Z,10.35
2018-02-04T08:44:50.226Z,9.99
2018-02-04T08:45:50.210Z,9.97
2018-02-04T08:46:50.211Z,9.64
2018-02-04T08:47:50.195Z,9.73
2018-02-04T08:48:50.195Z,10.41
2018-02-04T08:49:50.182Z,9.89
2018-02-04T08:50:50.171Z,10.06
2018-02-04T08:51:50.150Z,9.25
2018-02-04T08:52:50.167Z,9.56
2018-02-04T08:53:50.137Z,9.42
2018-02-04T08:54:50.120Z,9.14
2018-02-04T08:55:50.108Z,9.20
2018-02-04T08:56:50.099Z,8.90
2018-02-04T08:57:50.086Z,8.67
2018-02-04T08:58:50.072Z,7.80
2018-02-04T08:59:50.068Z,8.58
2018-02-04T09:00:50.223Z,8.30
2018-02-04T09:01:50.042Z,8.19
2018-02-04T09:02:50.053Z,7.53
2018-02-04T09:03:50.027Z,7.97
2018-02-04T09:04:50.014Z,7.84
2018-02-04T09:05:50.006Z,7.16
2018-02-04T09:06:50.008Z,7.67
2018-02-04T09:07:49.986Z,7.71
2018-02-04T09:08:49.982Z,7.26
2018-02-04T09:09:49.973Z,7.12
2018-02-04T09:10:49.944Z,7.39
2018-02-04T09:11:49.944Z,7.31
2018-02-04T09:12:49.929Z,7.48
2018-02-04T09:13:49.947Z,6.91
2018-02-04T09:14:49.908Z,7.20
2018-02-04T09:15:49.900Z,7.00
2018-02-04T09:16:49.890Z,7.43
2018-02-04T09:17:49.885Z,7.44
2018-02-04T09:18:49.875Z,7.03
2018-02-04T09:19:49.864Z,6.99
2018-02-04T09:20:49.840Z,6.86
2018-02-04T09:21:49.838Z,7.52
2018-02-04T09:22:49.828Z,6.64
2018-02-04T09:23:49.811Z,6.37
2018-02-04T09:24:49.808Z,6.49
2018-02-04T09:25:49.786Z,6.67
2018-02-04T09:26:49.783Z,6.60
2018-02-04T09:27:49.773Z,6.78
2018-02-04T09:28:49.754Z,6.83
2018-02-04T09:29:49.750Z,6.22
2018-02-04T09:30:50.386Z,6.36
2018-02-04T09:31:49.743Z,6.30
2018-02-04T09:32:49.729Z,6.59
2018-02-04T09:33:49.728Z,6.24
2018-02-04T09:34:49.699Z,5.59
2018-02-04T09:35:49.688Z,5.86
2018-02-04T09:36:49.682Z,6.10
2018-02-04T09:37:49.673Z,6.43
2018-02-04T09:38:49.668Z,5.99
2018-02-04T09:39:49.659Z,5.75
2018-02-04T09:40:49.634Z,5.43
2018-02-04T09:41:49.643Z,5.87
2018-02-04T09:42:49.622Z,6.09
2018-02-04T09:43:49.616Z,6.22
2018-02-04T09:44:49.616Z,5.74
2018-02-04T09:45:49.595Z,5.75
2018-02-04T09:46:49.610Z,5.75
2018-02-04T09:47:49.585Z,5.91
2018-02-04T09:48:49.576Z,5.82
2018-02-04T09:49:49.558Z,6.09
2018-02-04T09:50:49.537Z,5.93
2018-02-04T09:51:49.538Z,6.38
2018-02-04T09:52:49.521Z,6.30
2018-02-04T09:53:49.514Z,5.97
2018-02-04T09:54:49.521Z,5.90
2018-02-04T09:55:49.483Z,5.34
2018-02-04T09:56:49.490Z,4.97
2018-02-04T09:57:49.479Z,5.36
2018-02-04T09:58:49.511Z,5.27
2018-02-04T09:59:49.463Z,5.84
2018-02-04T10:00:49.442Z,5.58
2018-02-04T10:01:49.454Z,5.80
2018-02-04T10:02:49.464Z,5.55
2018-02-04T10:03:49.415Z,5.73
2018-02-04T10:04:49.424Z,5.21
2018-02-04T10:05:49.398Z,5.39
2018-02-04T10:06:49.387Z,5.17
2018-02-04T10:07:49.394Z,5.32
2018-02-04T10:08:49.372Z,5.34
2018-02-04T10:09:49.370Z,5.78
2018-02-04T10:10:49.353Z,5.59
2018-02-04T10:11:49.360Z,5.53
2018-02-04T10:12:49.888Z,5.15
2018-02-04T10:13:49.334Z,5.48
2018-02-04T10:14:49.319Z,5.18
2018-02-04T10:15:49.304Z,5.59
2018-02-04T10:16:49.307Z,5.40
2018-02-04T10:17:49.285Z,5.86
2018-02-04T10:18:49.275Z,6.10
2018-02-04T10:19:49.261Z,5.84
2018-02-04T10:20:49.250Z,5.73
2018-02-04T10:21:49.251Z,5.89
2018-02-04T10:22:49.272Z,7.86
2018-02-04T10:23:49.226Z,6.30
2018-02-04T10:24:49.221Z,5.74
2018-02-04T10:25:49.226Z,6.00
2018-02-04T10:26:49.214Z,5.48
2018-02-04T10:27:49.196Z,5.55
2018-02-04T10:28:49.177Z,5.12
2018-02-04T10:29:49.183Z,4.97
2018-02-04T10:30:49.162Z,4.90
2018-02-04T10:31:49.172Z,5.02
2018-02-04T10:32:49.143Z,5.25
2018-02-04T10:33:49.131Z,5.08
2018-02-04T10:34:49.131Z,5.06
2018-02-04T10:35:49.115Z,5.02
2018-02-04T10:36:49.106Z,5.10
2018-02-04T10:37:49.102Z,5.01
2018-02-04T10:38:49.086Z,4.76
2018-02-04T10:39:49.084Z,5.01
2018-02-04T10:40:49.071Z,5.09
2018-02-04T10:41:49.057Z,4.90
2018-02-04T10:42:49.045Z,5.03
2018-02-04T10:43:49.055Z,5.02
2018-02-04T10:44:49.040Z,4.82
2018-02-04T10:45:49.019Z,4.76
2018-02-04T10:46:49.256Z,4.75
2018-02-04T10:47:49.294Z,4.97
2018-02-04T10:48:49.382Z,5.03
2018-02-04T10:49:49.125Z,5.18
2018-02-04T10:50:48.978Z,5.33
2018-02-04T10:51:48.947Z,5.52
2018-02-04T10:52:48.945Z,5.59
2018-02-04T10:53:48.934Z,5.75
2018-02-04T10:54:48.922Z,5.66
2018-02-04T10:55:48.906Z,6.14
2018-02-04T10:56:48.902Z,5.63
2018-02-04T10:57:48.898Z,5.74
2018-02-04T10:58:48.889Z,5.63
2018-02-04T10:59:48.886Z,5.83
2018-02-04T11:00:49.372Z,6.00
2018-02-04T11:01:49.149Z,5.71
2018-02-04T11:02:48.874Z,6.09
2018-02-04T11:03:48.834Z,5.77
2018-02-04T11:04:48.832Z,5.69
2018-02-04T11:05:48.841Z,5.86
2018-02-04T11:06:48.804Z,5.65
2018-02-04T11:07:48.795Z,5.67
2018-02-04T11:08:48.792Z,5.83
2018-02-04T11:09:48.779Z,5.97
2018-02-04T11:10:48.772Z,5.94
2018-02-04T11:11:48.752Z,6.41
2018-02-04T11:12:48.768Z,6.43
2018-02-04T11:13:48.732Z,6.72
2018-02-04T11:14:48.741Z,7.14
2018-02-04T11:15:48.753Z,7.00
2018-02-04T11:16:48.714Z,5.74
2018-02-04T11:17:48.703Z,6.66
2018-02-04T11:18:48.704Z,5.91
2018-02-04T11:19:48.684Z,6.50
2018-02-04T11:20:48.672Z,6.09
2018-02-04T11:21:48.669Z,6.02
2018-02-04T11:22:48.654Z,6.06
2018-02-04T11:23:48.642Z,5.77
2018-02-04T11:24:48.657Z,6.86
2018-02-04T11:25:48.626Z,6.63
2018-02-04T11:26:48.612Z,6.10
2018-02-04T11:27:48.604Z,7.22
2018-02-04T11:28:48.620Z,9.07
2018-02-04T11:29:48.595Z,7.31
2018-02-04T11:30:48.594Z,8.22
2018-02-04T11:31:48.560Z,8.38
2018-02-04T11:32:48.559Z,7.18
2018-02-04T11:33:48.546Z,6.70
2018-02-04T11:34:48.538Z,6.23
2018-02-04T11:35:48.526Z,6.69
2018-02-04T11:36:48.529Z,6.77
2018-02-04T11:37:48.521Z,6.16
2018-02-04T11:38:48.520Z,7.29
2018-02-04T11:39:48.488Z,6.32
2018-02-04T11:40:48.474Z,6.04
2018-02-04T11:41:48.470Z,6.06
2018-02-04T11:42:48.475Z,6.55
2018-02-04T11:43:48.448Z,6.46
2018-02-04T11:44:48.437Z,6.24
2018-02-04T11:45:48.427Z,6.44
2018-02-04T11:46:48.430Z,6.20
2018-02-04T11:47:48.419Z,6.46
2018-02-04T11:48:48.409Z,6.43
2018-02-04T11:49:48.401Z,6.04
2018-02-04T11:50:48.395Z,6.14
2018-02-04T11:51:48.376Z,5.97
2018-02-04T11:52:48.365Z,6.32
2018-02-04T11:53:48.352Z,5.77
2018-02-04T11:54:48.344Z,6.10
2018-02-04T11:55:48.342Z,6.38
2018-02-04T11:56:48.324Z,6.43
2018-02-04T11:57:48.308Z,5.88
2018-02-04T11:58:48.307Z,5.44
2018-02-04T11:59:48.286Z,6.00
2018-02-04T12:00:48.284Z,5.78
2018-02-04T12:01:48.287Z,5.38
2018-02-04T12:02:48.265Z,6.12
2018-02-04T12:03:48.274Z,5.76
2018-02-04T12:04:48.259Z,6.22
2018-02-04T12:05:48.231Z,5.94
2018-02-04T12:06:48.232Z,6.03
2018-02-04T12:07:48.223Z,5.97
2018-02-04T12:08:48.204Z,6.12
2018-02-04T12:09:48.200Z,5.51
2018-02-04T12:10:48.179Z,5.61
2018-02-04T12:11:48.186Z,5.98
2018-02-04T12:12:48.169Z,6.06
2018-02-04T12:13:48.167Z,5.67
2018-02-04T12:14:48.163Z,5.76
2018-02-04T12:15:48.134Z,5.72
2018-02-04T12:16:48.145Z,5.82
2018-02-04T12:17:48.127Z,5.80
2018-02-04T12:18:48.118Z,6.08
2018-02-04T12:19:48.103Z,6.34
2018-02-04T12:20:48.098Z,6.74
2018-02-04T12:21:48.085Z,6.37
2018-02-04T12:22:48.103Z,6.32
2018-02-04T12:23:48.064Z,5.93
2018-02-04T12:24:48.052Z,5.86
2018-02-04T12:25:48.049Z,6.22
2018-02-04T12:26:48.038Z,6.30
2018-02-04T12:27:48.046Z,6.07
2018-02-04T12:28:48.014Z,6.58
2018-02-04T12:29:48.003Z,6.12
2018-02-04T12:30:48.007Z,5.89
2018-02-04T12:31:47.982Z,5.43
2018-02-04T12:32:47.993Z,5.46
2018-02-04T12:33:47.967Z,5.86
2018-02-04T12:34:47.963Z,6.17
2018-02-04T12:35:47.978Z,6.47
2018-02-04T12:36:47.930Z,6.04
2018-02-04T12:37:47.954Z,6.34
2018-02-04T12:38:47.929Z,5.93
2018-02-04T12:39:47.908Z,6.24
2018-02-04T12:40:47.902Z,6.44
2018-02-04T12:41:47.894Z,6.27
2018-02-04T12:42:47.884Z,6.31
2018-02-04T12:43:47.883Z,6.46
2018-02-04T12:44:47.897Z,6.48
2018-02-04T12:45:47.871Z,6.48
2018-02-04T12:46:47.847Z,6.27
2018-02-04T12:47:47.841Z,6.71
2018-02-04T12:48:47.834Z,6.84
2018-02-04T12:49:47.824Z,6.70
2018-02-04T12:50:47.827Z,6.93
2018-02-04T12:51:47.799Z,6.53
2018-02-04T12:52:47.785Z,6.41
2018-02-04T12:53:47.774Z,6.67
2018-02-04T12:54:47.774Z,7.05
2018-02-04T12:55:47.758Z,6.69
2018-02-04T12:56:47.741Z,7.09
2018-02-04T12:57:47.732Z,7.49
2018-02-04T12:58:47.727Z,7.33
2018-02-04T12:59:47.728Z,7.19
2018-02-04T13:00:47.720Z,7.00
2018-02-04T13:01:47.725Z,6.97